sensor_id;sensor_type;location;lat;lon;timestamp;temperature;humidity
20839;DHT22;10580;51.092;6.828;2022-12-19T00:01:02;-0.20;99.90
20839;DHT22;10580;51.092;6.828;2022-12-19T00:03:28;-0.20;99.90
20839;DHT22;10580;51.092;6.828;2022-12-19T00:05:53;-0.20;99.90
20839;DHT22;10580;51.092;6.828;2022-12-19T00:08:19;-0.20;99.90
20839;DHT22;10580;51.092;6.828;2022-12-19T00:10:57;-0.10;99.90
20839;DHT22;10580;51.092;6.828;2022-12-19T00:13:23;-0.10;99.90
20839;DHT22;10580;51.092;6.828;2022-12-19T00:15:48;-0.10;99.90
20839;DHT22;10580;51.092;6.828;2022-12-19T00:18:14;-0.10;99.90
20839;DHT22;10580;51.092;6.828;2022-12-19T00:20:40;0.00;99.90
20839;DHT22;10580;51.092;6.828;2022-12-19T00:23:05;0.00;99.90
20839;DHT22;10580;51.092;6.828;2022-12-19T00:25:32;0.00;99.90
20839;DHT22;10580;51.092;6.828;2022-12-19T00:27:57;0.00;99.90
20839;DHT22;10580;51.092;6.828;2022-12-19T00:30:23;0.00;99.90
20839;DHT22;10580;51.092;6.828;2022-12-19T00:32:48;0.10;99.90
20839;DHT22;10580;51.092;6.828;2022-12-19T00:35:14;0.10;99.90
20839;DHT22;10580;51.092;6.828;2022-12-19T00:37:40;0.10;99.90
20839;DHT22;10580;51.092;6.828;2022-12-19T00:40:06;0.20;99.90
20839;DHT22;10580;51.092;6.828;2022-12-19T00:42:31;0.20;99.90
20839;DHT22;10580;51.092;6.828;2022-12-19T00:44:57;0.10;99.90
20839;DHT22;10580;51.092;6.828;2022-12-19T00:47:26;0.20;99.90
20839;DHT22;10580;51.092;6.828;2022-12-19T00:49:51;0.20;99.90
20839;DHT22;10580;51.092;6.828;2022-12-19T00:52:17;0.20;99.90
20839;DHT22;10580;51.092;6.828;2022-12-19T00:54:42;0.20;99.90
20839;DHT22;10580;51.092;6.828;2022-12-19T00:57:08;0.30;99.90
20839;DHT22;10580;51.092;6.828;2022-12-19T00:59:33;0.30;99.90
20839;DHT22;10580;51.092;6.828;2022-12-19T01:01:59;0.40;99.90
20839;DHT22;10580;51.092;6.828;2022-12-19T01:04:24;0.40;99.90
20839;DHT22;10580;51.092;6.828;2022-12-19T01:06:50;0.40;99.90
20839;DHT22;10580;51.092;6.828;2022-12-19T01:09:15;0.40;99.90
20839;DHT22;10580;51.092;6.828;2022-12-19T01:11:41;0.40;99.90
20839;DHT22;10580;51.092;6.828;2022-12-19T01:14:25;0.40;99.90
20839;DHT22;10580;51.092;6.828;2022-12-19T01:16:51;0.40;99.90
20839;DHT22;10580;51.092;6.828;2022-12-19T01:19:16;0.40;99.90
20839;DHT22;10580;51.092;6.828;2022-12-19T01:21:42;0.40;99.90
20839;DHT22;10580;51.092;6.828;2022-12-19T01:24:07;0.40;99.90
20839;DHT22;10580;51.092;6.828;2022-12-19T01:26:33;0.40;99.90
20839;DHT22;10580;51.092;6.828;2022-12-19T01:28:59;0.40;99.90
20839;DHT22;10580;51.092;6.828;2022-12-19T01:31:24;0.40;99.90
20839;DHT22;10580;51.092;6.828;2022-12-19T01:33:50;0.50;99.90
20839;DHT22;10580;51.092;6.828;2022-12-19T01:36:15;0.40;99.90
20839;DHT22;10580;51.092;6.828;2022-12-19T01:38:41;0.50;99.90
20839;DHT22;10580;51.092;6.828;2022-12-19T01:41:07;0.50;99.90
20839;DHT22;10580;51.092;6.828;2022-12-19T01:44:00;0.50;99.90
20839;DHT22;10580;51.092;6.828;2022-12-19T01:46:38;0.50;99.90
20839;DHT22;10580;51.092;6.828;2022-12-19T01:49:15;0.50;99.90
20839;DHT22;10580;51.092;6.828;2022-12-19T01:51:45;0.60;99.90
20839;DHT22;10580;51.092;6.828;2022-12-19T01:54:16;0.60;99.90
20839;DHT22;10580;51.092;6.828;2022-12-19T01:56:47;0.60;99.90
20839;DHT22;10580;51.092;6.828;2022-12-19T01:59:21;0.60;99.90
20839;DHT22;10580;51.092;6.828;2022-12-19T02:01:54;0.70;99.90
20839;DHT22;10580;51.092;6.828;2022-12-19T02:04:25;0.70;99.90
20839;DHT22;10580;51.092;6.828;2022-12-19T02:06:53;0.70;99.90
20839;DHT22;10580;51.092;6.828;2022-12-19T02:09:19;0.70;99.90
20839;DHT22;10580;51.092;6.828;2022-12-19T02:11:45;0.70;99.90
20839;DHT22;10580;51.092;6.828;2022-12-19T02:14:11;0.80;99.90
20839;DHT22;10580;51.092;6.828;2022-12-19T02:16:44;0.80;99.90
20839;DHT22;10580;51.092;6.828;2022-12-19T02:22:21;0.80;99.90
20839;DHT22;10580;51.092;6.828;2022-12-19T02:25:00;0.90;99.90
20839;DHT22;10580;51.092;6.828;2022-12-19T02:35:50;1.00;99.90
20839;DHT22;10580;51.092;6.828;2022-12-19T02:38:44;1.00;99.90
20839;DHT22;10580;51.092;6.828;2022-12-19T02:41:22;1.10;99.90
20839;DHT22;10580;51.092;6.828;2022-12-19T02:43:51;1.10;99.90
20839;DHT22;10580;51.092;6.828;2022-12-19T02:46:21;1.20;99.90
20839;DHT22;10580;51.092;6.828;2022-12-19T02:48:47;1.20;99.90
20839;DHT22;10580;51.092;6.828;2022-12-19T02:51:12;1.30;99.90
20839;DHT22;10580;51.092;6.828;2022-12-19T02:53:39;1.30;99.90
20839;DHT22;10580;51.092;6.828;2022-12-19T02:56:22;1.30;99.90
20839;DHT22;10580;51.092;6.828;2022-12-19T03:06:45;1.30;99.90
20839;DHT22;10580;51.092;6.828;2022-12-19T03:09:26;1.40;99.90
20839;DHT22;10580;51.092;6.828;2022-12-19T03:12:01;1.40;99.90
20839;DHT22;10580;51.092;6.828;2022-12-19T03:14:28;1.40;99.90
20839;DHT22;10580;51.092;6.828;2022-12-19T03:16:55;1.40;99.90
20839;DHT22;10580;51.092;6.828;2022-12-19T03:19:21;1.40;99.90
20839;DHT22;10580;51.092;6.828;2022-12-19T03:21:48;1.40;99.90
20839;DHT22;10580;51.092;6.828;2022-12-19T03:24:16;1.40;99.90
20839;DHT22;10580;51.092;6.828;2022-12-19T03:26:51;1.40;99.90
20839;DHT22;10580;51.092;6.828;2022-12-19T03:29:32;1.50;99.90
20839;DHT22;10580;51.092;6.828;2022-12-19T03:32:04;1.50;99.90
20839;DHT22;10580;51.092;6.828;2022-12-19T03:34:35;1.50;99.90
20839;DHT22;10580;51.092;6.828;2022-12-19T03:37:04;1.50;99.90
20839;DHT22;10580;51.092;6.828;2022-12-19T03:39:40;1.50;99.90
20839;DHT22;10580;51.092;6.828;2022-12-19T03:42:08;1.50;99.90
20839;DHT22;10580;51.092;6.828;2022-12-19T03:44:54;1.50;99.90
20839;DHT22;10580;51.092;6.828;2022-12-19T03:47:45;1.50;99.90
20839;DHT22;10580;51.092;6.828;2022-12-19T03:50:12;1.50;99.90
20839;DHT22;10580;51.092;6.828;2022-12-19T03:55:13;1.40;99.90
20839;DHT22;10580;51.092;6.828;2022-12-19T03:57:54;1.40;99.90
20839;DHT22;10580;51.092;6.828;2022-12-19T04:00:20;1.40;99.90
20839;DHT22;10580;51.092;6.828;2022-12-19T04:02:48;1.40;99.90
20839;DHT22;10580;51.092;6.828;2022-12-19T04:05:22;1.40;99.90
20839;DHT22;10580;51.092;6.828;2022-12-19T04:07:48;1.40;99.90
20839;DHT22;10580;51.092;6.828;2022-12-19T04:10:18;1.40;99.90
20839;DHT22;10580;51.092;6.828;2022-12-19T04:12:56;1.40;99.90
20839;DHT22;10580;51.092;6.828;2022-12-19T04:15:31;1.40;99.90
20839;DHT22;10580;51.092;6.828;2022-12-19T04:17:59;1.40;99.90
20839;DHT22;10580;51.092;6.828;2022-12-19T04:20:27;1.40;99.90
20839;DHT22;10580;51.092;6.828;2022-12-19T04:23:17;1.40;99.90
20839;DHT22;10580;51.092;6.828;2022-12-19T04:25:49;1.40;99.90
20839;DHT22;10580;51.092;6.828;2022-12-19T04:28:23;1.50;99.90
20839;DHT22;10580;51.092;6.828;2022-12-19T04:30:50;1.50;99.90
20839;DHT22;10580;51.092;6.828;2022-12-19T04:33:15;1.50;99.90
20839;DHT22;10580;51.092;6.828;2022-12-19T04:35:41;1.60;99.90
20839;DHT22;10580;51.092;6.828;2022-12-19T04:38:07;1.60;99.90
20839;DHT22;10580;51.092;6.828;2022-12-19T04:40:33;1.60;99.90
20839;DHT22;10580;51.092;6.828;2022-12-19T04:42:59;1.70;99.90
20839;DHT22;10580;51.092;6.828;2022-12-19T04:45:25;1.70;99.90
20839;DHT22;10580;51.092;6.828;2022-12-19T04:47:50;1.70;99.90
20839;DHT22;10580;51.092;6.828;2022-12-19T04:50:16;1.70;99.90
20839;DHT22;10580;51.092;6.828;2022-12-19T04:52:42;1.80;99.90
20839;DHT22;10580;51.092;6.828;2022-12-19T04:55:07;1.80;99.90
20839;DHT22;10580;51.092;6.828;2022-12-19T04:57:33;1.80;99.90
20839;DHT22;10580;51.092;6.828;2022-12-19T04:59:59;1.80;99.90
20839;DHT22;10580;51.092;6.828;2022-12-19T05:02:25;1.80;99.90
20839;DHT22;10580;51.092;6.828;2022-12-19T05:04:50;1.80;99.90
20839;DHT22;10580;51.092;6.828;2022-12-19T05:07:16;1.90;99.90
20839;DHT22;10580;51.092;6.828;2022-12-19T05:09:42;1.90;99.90
20839;DHT22;10580;51.092;6.828;2022-12-19T05:12:07;1.90;99.90
20839;DHT22;10580;51.092;6.828;2022-12-19T05:14:34;1.90;99.90
20839;DHT22;10580;51.092;6.828;2022-12-19T05:17:00;1.90;99.90
20839;DHT22;10580;51.092;6.828;2022-12-19T05:19:25;1.90;99.90
20839;DHT22;10580;51.092;6.828;2022-12-19T05:21:51;1.90;99.90
20839;DHT22;10580;51.092;6.828;2022-12-19T05:24:17;1.90;99.90
20839;DHT22;10580;51.092;6.828;2022-12-19T05:26:42;1.90;99.90
20839;DHT22;10580;51.092;6.828;2022-12-19T05:29:08;1.90;99.90
20839;DHT22;10580;51.092;6.828;2022-12-19T05:31:34;1.90;99.90
20839;DHT22;10580;51.092;6.828;2022-12-19T05:33:59;1.90;99.90
20839;DHT22;10580;51.092;6.828;2022-12-19T05:36:25;2.00;99.90
20839;DHT22;10580;51.092;6.828;2022-12-19T05:38:51;2.00;99.90
20839;DHT22;10580;51.092;6.828;2022-12-19T05:41:18;2.00;99.90
20839;DHT22;10580;51.092;6.828;2022-12-19T05:43:51;2.00;99.90
20839;DHT22;10580;51.092;6.828;2022-12-19T05:46:17;2.10;99.90
20839;DHT22;10580;51.092;6.828;2022-12-19T05:48:43;2.10;99.90
20839;DHT22;10580;51.092;6.828;2022-12-19T05:51:08;2.10;99.90
20839;DHT22;10580;51.092;6.828;2022-12-19T05:53:35;2.20;99.90
20839;DHT22;10580;51.092;6.828;2022-12-19T05:56:19;2.20;99.90
20839;DHT22;10580;51.092;6.828;2022-12-19T05:58:46;2.20;99.90
20839;DHT22;10580;51.092;6.828;2022-12-19T06:01:20;2.20;99.90
20839;DHT22;10580;51.092;6.828;2022-12-19T06:03:46;2.20;99.90
20839;DHT22;10580;51.092;6.828;2022-12-19T06:06:18;2.20;99.90
20839;DHT22;10580;51.092;6.828;2022-12-19T06:08:44;2.30;99.90
20839;DHT22;10580;51.092;6.828;2022-12-19T06:11:11;2.30;99.90
20839;DHT22;10580;51.092;6.828;2022-12-19T06:13:37;2.30;99.90
20839;DHT22;10580;51.092;6.828;2022-12-19T06:16:12;2.30;99.90
20839;DHT22;10580;51.092;6.828;2022-12-19T06:18:38;2.30;99.90
20839;DHT22;10580;51.092;6.828;2022-12-19T06:21:07;2.30;99.90
20839;DHT22;10580;51.092;6.828;2022-12-19T06:23:35;2.40;99.90
20839;DHT22;10580;51.092;6.828;2022-12-19T06:26:02;2.40;99.90
20839;DHT22;10580;51.092;6.828;2022-12-19T06:28:29;2.40;99.90
20839;DHT22;10580;51.092;6.828;2022-12-19T06:30:57;2.40;99.90
20839;DHT22;10580;51.092;6.828;2022-12-19T06:33:23;2.50;99.90
20839;DHT22;10580;51.092;6.828;2022-12-19T06:35:58;2.50;99.90
20839;DHT22;10580;51.092;6.828;2022-12-19T06:38:25;2.60;99.90
20839;DHT22;10580;51.092;6.828;2022-12-19T06:40:50;2.70;99.90
20839;DHT22;10580;51.092;6.828;2022-12-19T06:43:34;2.70;99.90
20839;DHT22;10580;51.092;6.828;2022-12-19T06:46:00;2.80;99.90
20839;DHT22;10580;51.092;6.828;2022-12-19T06:48:26;2.80;99.90
20839;DHT22;10580;51.092;6.828;2022-12-19T06:50:52;2.90;99.90
20839;DHT22;10580;51.092;6.828;2022-12-19T06:53:18;2.90;99.90
20839;DHT22;10580;51.092;6.828;2022-12-19T06:55:44;2.90;99.90
20839;DHT22;10580;51.092;6.828;2022-12-19T06:58:09;2.90;99.90
20839;DHT22;10580;51.092;6.828;2022-12-19T07:00:35;3.00;99.90
20839;DHT22;10580;51.092;6.828;2022-12-19T07:03:03;3.00;99.90
20839;DHT22;10580;51.092;6.828;2022-12-19T07:05:30;3.00;99.90
20839;DHT22;10580;51.092;6.828;2022-12-19T07:07:55;3.00;99.90
20839;DHT22;10580;51.092;6.828;2022-12-19T07:10:21;3.10;99.90
20839;DHT22;10580;51.092;6.828;2022-12-19T07:12:46;3.10;99.90
20839;DHT22;10580;51.092;6.828;2022-12-19T07:15:12;3.10;99.90
20839;DHT22;10580;51.092;6.828;2022-12-19T07:17:37;3.20;99.90
20839;DHT22;10580;51.092;6.828;2022-12-19T07:20:03;3.20;99.90
20839;DHT22;10580;51.092;6.828;2022-12-19T07:22:35;3.20;99.90
20839;DHT22;10580;51.092;6.828;2022-12-19T07:25:02;3.20;99.90
20839;DHT22;10580;51.092;6.828;2022-12-19T07:27:37;3.10;99.90
20839;DHT22;10580;51.092;6.828;2022-12-19T07:30:04;3.20;99.90
20839;DHT22;10580;51.092;6.828;2022-12-19T07:32:30;3.10;99.90
20839;DHT22;10580;51.092;6.828;2022-12-19T07:34:56;3.10;99.90
20839;DHT22;10580;51.092;6.828;2022-12-19T07:37:21;3.10;99.90
20839;DHT22;10580;51.092;6.828;2022-12-19T07:40:08;3.10;99.90
20839;DHT22;10580;51.092;6.828;2022-12-19T07:42:33;3.10;99.90
20839;DHT22;10580;51.092;6.828;2022-12-19T07:44:59;3.10;99.90
20839;DHT22;10580;51.092;6.828;2022-12-19T07:47:26;3.20;99.90
20839;DHT22;10580;51.092;6.828;2022-12-19T07:49:52;3.20;99.90
20839;DHT22;10580;51.092;6.828;2022-12-19T07:52:18;3.20;99.90
20839;DHT22;10580;51.092;6.828;2022-12-19T07:54:43;3.20;99.90
20839;DHT22;10580;51.092;6.828;2022-12-19T07:57:11;3.20;99.90
20839;DHT22;10580;51.092;6.828;2022-12-19T07:59:37;3.20;99.90
20839;DHT22;10580;51.092;6.828;2022-12-19T08:02:02;3.30;99.90
20839;DHT22;10580;51.092;6.828;2022-12-19T08:04:28;3.30;99.90
20839;DHT22;10580;51.092;6.828;2022-12-19T08:06:53;3.30;99.90
20839;DHT22;10580;51.092;6.828;2022-12-19T08:09:19;3.30;99.90
20839;DHT22;10580;51.092;6.828;2022-12-19T08:11:45;3.30;99.90
20839;DHT22;10580;51.092;6.828;2022-12-19T08:14:10;3.40;99.90
20839;DHT22;10580;51.092;6.828;2022-12-19T08:16:36;3.40;99.90
20839;DHT22;10580;51.092;6.828;2022-12-19T08:19:02;3.40;99.90
20839;DHT22;10580;51.092;6.828;2022-12-19T08:21:28;3.40;99.90
20839;DHT22;10580;51.092;6.828;2022-12-19T08:23:54;3.50;99.90
20839;DHT22;10580;51.092;6.828;2022-12-19T08:26:21;3.50;99.90
20839;DHT22;10580;51.092;6.828;2022-12-19T08:28:54;3.60;99.90
20839;DHT22;10580;51.092;6.828;2022-12-19T08:31:21;3.60;99.90
20839;DHT22;10580;51.092;6.828;2022-12-19T08:33:51;3.60;99.90
20839;DHT22;10580;51.092;6.828;2022-12-19T08:36:26;3.70;99.90
20839;DHT22;10580;51.092;6.828;2022-12-19T08:39:02;3.80;99.90
20839;DHT22;10580;51.092;6.828;2022-12-19T08:41:27;3.80;99.90
20839;DHT22;10580;51.092;6.828;2022-12-19T08:43:53;3.80;99.90
20839;DHT22;10580;51.092;6.828;2022-12-19T08:46:20;3.90;99.90
20839;DHT22;10580;51.092;6.828;2022-12-19T08:48:46;3.90;99.90
20839;DHT22;10580;51.092;6.828;2022-12-19T08:51:13;3.90;99.90
20839;DHT22;10580;51.092;6.828;2022-12-19T08:53:41;4.00;99.90
20839;DHT22;10580;51.092;6.828;2022-12-19T08:56:10;4.00;99.90
20839;DHT22;10580;51.092;6.828;2022-12-19T08:58:44;4.00;99.90
20839;DHT22;10580;51.092;6.828;2022-12-19T09:01:15;4.00;99.90
20839;DHT22;10580;51.092;6.828;2022-12-19T09:03:49;4.10;99.90
20839;DHT22;10580;51.092;6.828;2022-12-19T09:06:15;4.10;99.90
20839;DHT22;10580;51.092;6.828;2022-12-19T09:08:41;4.20;99.90
20839;DHT22;10580;51.092;6.828;2022-12-19T09:11:16;4.20;99.90
20839;DHT22;10580;51.092;6.828;2022-12-19T09:13:43;4.20;99.90
20839;DHT22;10580;51.092;6.828;2022-12-19T09:16:17;4.20;99.90
20839;DHT22;10580;51.092;6.828;2022-12-19T09:18:44;4.20;99.90
20839;DHT22;10580;51.092;6.828;2022-12-19T09:21:10;4.30;99.90
20839;DHT22;10580;51.092;6.828;2022-12-19T09:23:38;4.30;99.90
20839;DHT22;10580;51.092;6.828;2022-12-19T09:26:09;4.40;99.90
20839;DHT22;10580;51.092;6.828;2022-12-19T09:28:35;4.40;99.90
20839;DHT22;10580;51.092;6.828;2022-12-19T09:31:09;4.40;99.90
20839;DHT22;10580;51.092;6.828;2022-12-19T09:33:38;4.50;99.90
20839;DHT22;10580;51.092;6.828;2022-12-19T09:36:05;4.50;99.90
20839;DHT22;10580;51.092;6.828;2022-12-19T09:38:32;4.40;99.90
20839;DHT22;10580;51.092;6.828;2022-12-19T09:43:41;4.50;99.90
20839;DHT22;10580;51.092;6.828;2022-12-19T09:46:16;4.50;99.90
20839;DHT22;10580;51.092;6.828;2022-12-19T09:48:52;4.60;99.90
20839;DHT22;10580;51.092;6.828;2022-12-19T09:51:39;4.60;99.90
20839;DHT22;10580;51.092;6.828;2022-12-19T09:54:22;4.60;99.90
20839;DHT22;10580;51.092;6.828;2022-12-19T09:56:52;4.60;99.90
20839;DHT22;10580;51.092;6.828;2022-12-19T09:59:45;4.60;99.90
20839;DHT22;10580;51.092;6.828;2022-12-19T10:04:48;4.70;99.90
20839;DHT22;10580;51.092;6.828;2022-12-19T10:07:18;4.70;99.90
20839;DHT22;10580;51.092;6.828;2022-12-19T10:09:44;4.70;99.90
20839;DHT22;10580;51.092;6.828;2022-12-19T10:12:33;4.70;99.90
20839;DHT22;10580;51.092;6.828;2022-12-19T10:21:37;4.70;99.90
20839;DHT22;10580;51.092;6.828;2022-12-19T10:24:27;4.80;99.90
20839;DHT22;10580;51.092;6.828;2022-12-19T10:27:14;4.80;99.90
20839;DHT22;10580;51.092;6.828;2022-12-19T10:35:17;4.70;99.90
20839;DHT22;10580;51.092;6.828;2022-12-19T10:37:51;4.70;99.90
20839;DHT22;10580;51.092;6.828;2022-12-19T10:40:33;4.70;99.90
20839;DHT22;10580;51.092;6.828;2022-12-19T10:45:44;4.70;99.90
20839;DHT22;10580;51.092;6.828;2022-12-19T10:48:15;4.70;99.90
20839;DHT22;10580;51.092;6.828;2022-12-19T10:50:59;4.80;99.90
20839;DHT22;10580;51.092;6.828;2022-12-19T10:53:27;4.80;99.90
20839;DHT22;10580;51.092;6.828;2022-12-19T10:55:54;4.80;99.90
20839;DHT22;10580;51.092;6.828;2022-12-19T10:58:32;4.80;99.90
20839;DHT22;10580;51.092;6.828;2022-12-19T11:01:39;4.80;99.90
20839;DHT22;10580;51.092;6.828;2022-12-19T11:04:23;4.80;99.90
20839;DHT22;10580;51.092;6.828;2022-12-19T11:09:49;4.80;99.90
20839;DHT22;10580;51.092;6.828;2022-12-19T11:12:16;4.80;99.90
20839;DHT22;10580;51.092;6.828;2022-12-19T11:14:50;4.90;99.90
20839;DHT22;10580;51.092;6.828;2022-12-19T11:17:25;4.90;99.90
20839;DHT22;10580;51.092;6.828;2022-12-19T11:19:51;4.90;99.90
20839;DHT22;10580;51.092;6.828;2022-12-19T11:22:28;4.90;99.90
20839;DHT22;10580;51.092;6.828;2022-12-19T11:24:57;5.00;99.90
20839;DHT22;10580;51.092;6.828;2022-12-19T11:27:44;5.00;99.90
20839;DHT22;10580;51.092;6.828;2022-12-19T11:32:46;5.00;99.90
20839;DHT22;10580;51.092;6.828;2022-12-19T11:35:20;5.00;99.90
20839;DHT22;10580;51.092;6.828;2022-12-19T11:40:38;5.00;99.90
20839;DHT22;10580;51.092;6.828;2022-12-19T11:43:28;5.10;99.90
20839;DHT22;10580;51.092;6.828;2022-12-19T11:48:48;5.20;99.90
20839;DHT22;10580;51.092;6.828;2022-12-19T11:51:25;5.20;99.90
20839;DHT22;10580;51.092;6.828;2022-12-19T11:54:05;5.20;99.90
20839;DHT22;10580;51.092;6.828;2022-12-19T11:56:34;5.30;99.90
20839;DHT22;10580;51.092;6.828;2022-12-19T11:59:06;5.30;99.90
20839;DHT22;10580;51.092;6.828;2022-12-19T12:01:51;5.30;99.90
20839;DHT22;10580;51.092;6.828;2022-12-19T12:04:54;5.30;99.90
20839;DHT22;10580;51.092;6.828;2022-12-19T12:07:30;5.40;99.90
20839;DHT22;10580;51.092;6.828;2022-12-19T12:21:10;5.50;99.90
20839;DHT22;10580;51.092;6.828;2022-12-19T12:26:36;5.60;99.90
20839;DHT22;10580;51.092;6.828;2022-12-19T12:29:23;5.60;99.90
20839;DHT22;10580;51.092;6.828;2022-12-19T12:40:08;5.60;99.90
20839;DHT22;10580;51.092;6.828;2022-12-19T12:45:29;5.70;99.90
20839;DHT22;10580;51.092;6.828;2022-12-19T12:47:59;5.70;99.90
20839;DHT22;10580;51.092;6.828;2022-12-19T12:50:25;5.70;99.90
20839;DHT22;10580;51.092;6.828;2022-12-19T12:53:01;5.70;99.90
20839;DHT22;10580;51.092;6.828;2022-12-19T12:55:36;5.80;99.90
20839;DHT22;10580;51.092;6.828;2022-12-19T12:58:05;5.80;99.90
20839;DHT22;10580;51.092;6.828;2022-12-19T13:03:56;5.80;99.90
20839;DHT22;10580;51.092;6.828;2022-12-19T13:06:38;5.80;99.90
20839;DHT22;10580;51.092;6.828;2022-12-19T13:11:49;5.80;99.90
20839;DHT22;10580;51.092;6.828;2022-12-19T13:17:06;5.90;99.90
20839;DHT22;10580;51.092;6.828;2022-12-19T13:19:37;5.90;99.90
20839;DHT22;10580;51.092;6.828;2022-12-19T13:27:47;6.00;99.90
20839;DHT22;10580;51.092;6.828;2022-12-19T13:30:15;6.00;99.90
20839;DHT22;10580;51.092;6.828;2022-12-19T13:40:27;6.00;99.90
20839;DHT22;10580;51.092;6.828;2022-12-19T13:46:42;6.00;99.90
20839;DHT22;10580;51.092;6.828;2022-12-19T13:49:19;6.00;99.90
20839;DHT22;10580;51.092;6.828;2022-12-19T13:51:58;5.90;99.90
20839;DHT22;10580;51.092;6.828;2022-12-19T13:54:33;6.00;99.90
20839;DHT22;10580;51.092;6.828;2022-12-19T13:57:17;5.90;99.90
20839;DHT22;10580;51.092;6.828;2022-12-19T14:00:08;5.90;99.90
20839;DHT22;10580;51.092;6.828;2022-12-19T14:02:40;6.00;99.90
20839;DHT22;10580;51.092;6.828;2022-12-19T14:05:52;5.90;99.90
20839;DHT22;10580;51.092;6.828;2022-12-19T14:08:34;5.90;99.90
20839;DHT22;10580;51.092;6.828;2022-12-19T14:11:01;5.90;99.90
20839;DHT22;10580;51.092;6.828;2022-12-19T14:14:00;5.90;99.90
20839;DHT22;10580;51.092;6.828;2022-12-19T14:16:45;5.80;99.90
20839;DHT22;10580;51.092;6.828;2022-12-19T14:19:22;5.80;99.90
20839;DHT22;10580;51.092;6.828;2022-12-19T14:21:53;5.70;99.90
20839;DHT22;10580;51.092;6.828;2022-12-19T14:24:21;5.70;99.90
20839;DHT22;10580;51.092;6.828;2022-12-19T14:27:02;5.70;99.90
20839;DHT22;10580;51.092;6.828;2022-12-19T14:29:52;5.70;99.90
20839;DHT22;10580;51.092;6.828;2022-12-19T14:32:22;5.70;99.90
20839;DHT22;10580;51.092;6.828;2022-12-19T14:35:13;5.70;99.90
20839;DHT22;10580;51.092;6.828;2022-12-19T14:37:43;5.70;99.90
20839;DHT22;10580;51.092;6.828;2022-12-19T14:40:25;5.70;99.90
20839;DHT22;10580;51.092;6.828;2022-12-19T14:51:49;5.80;99.90
20839;DHT22;10580;51.092;6.828;2022-12-19T14:54:22;5.90;99.90
20839;DHT22;10580;51.092;6.828;2022-12-19T14:56:55;5.90;99.90
20839;DHT22;10580;51.092;6.828;2022-12-19T14:59:26;5.90;99.90
20839;DHT22;10580;51.092;6.828;2022-12-19T15:02:17;5.90;99.90
20839;DHT22;10580;51.092;6.828;2022-12-19T15:05:07;5.90;99.90
20839;DHT22;10580;51.092;6.828;2022-12-19T15:07:57;6.00;99.90
20839;DHT22;10580;51.092;6.828;2022-12-19T15:10:33;6.00;99.90
20839;DHT22;10580;51.092;6.828;2022-12-19T15:15:58;6.00;99.90
20839;DHT22;10580;51.092;6.828;2022-12-19T15:18:38;6.00;99.90
20839;DHT22;10580;51.092;6.828;2022-12-19T15:21:09;6.10;99.90
20839;DHT22;10580;51.092;6.828;2022-12-19T15:23:38;6.10;99.90
20839;DHT22;10580;51.092;6.828;2022-12-19T15:26:15;6.10;99.90
20839;DHT22;10580;51.092;6.828;2022-12-19T15:28:51;6.10;99.90
20839;DHT22;10580;51.092;6.828;2022-12-19T15:31:36;6.20;99.90
20839;DHT22;10580;51.092;6.828;2022-12-19T15:34:27;6.20;99.90
20839;DHT22;10580;51.092;6.828;2022-12-19T15:36:54;6.20;99.90
20839;DHT22;10580;51.092;6.828;2022-12-19T15:39:21;6.30;99.90
20839;DHT22;10580;51.092;6.828;2022-12-19T15:41:49;6.30;99.90
20839;DHT22;10580;51.092;6.828;2022-12-19T15:44:33;6.30;99.90
20839;DHT22;10580;51.092;6.828;2022-12-19T15:47:00;6.40;99.90
20839;DHT22;10580;51.092;6.828;2022-12-19T15:49:26;6.40;99.90
20839;DHT22;10580;51.092;6.828;2022-12-19T15:51:52;6.40;99.90
20839;DHT22;10580;51.092;6.828;2022-12-19T15:54:18;6.40;99.90
20839;DHT22;10580;51.092;6.828;2022-12-19T15:56:49;6.40;99.90
20839;DHT22;10580;51.092;6.828;2022-12-19T15:59:33;6.40;99.90
20839;DHT22;10580;51.092;6.828;2022-12-19T16:02:00;6.40;99.90
20839;DHT22;10580;51.092;6.828;2022-12-19T16:04:27;6.40;99.90
20839;DHT22;10580;51.092;6.828;2022-12-19T16:06:52;6.40;99.90
20839;DHT22;10580;51.092;6.828;2022-12-19T16:09:23;6.40;99.90
20839;DHT22;10580;51.092;6.828;2022-12-19T16:11:53;6.40;99.90
20839;DHT22;10580;51.092;6.828;2022-12-19T16:14:25;6.40;99.90
20839;DHT22;10580;51.092;6.828;2022-12-19T16:16:54;6.40;99.90
20839;DHT22;10580;51.092;6.828;2022-12-19T16:19:29;6.50;99.90
20839;DHT22;10580;51.092;6.828;2022-12-19T16:22:00;6.60;99.90
20839;DHT22;10580;51.092;6.828;2022-12-19T16:24:26;6.70;99.90
20839;DHT22;10580;51.092;6.828;2022-12-19T16:26:54;6.90;99.90
20839;DHT22;10580;51.092;6.828;2022-12-19T16:29:28;7.10;99.90
20839;DHT22;10580;51.092;6.828;2022-12-19T16:32:07;7.50;99.90
20839;DHT22;10580;51.092;6.828;2022-12-19T16:34:36;7.80;99.90
20839;DHT22;10580;51.092;6.828;2022-12-19T16:41:20;7.90;99.90
20839;DHT22;10580;51.092;6.828;2022-12-19T16:43:39;8.00;99.90
20839;DHT22;10580;51.092;6.828;2022-12-19T16:46:07;7.80;99.90
20839;DHT22;10580;51.092;6.828;2022-12-19T16:48:45;7.50;99.90
20839;DHT22;10580;51.092;6.828;2022-12-19T16:51:19;7.30;99.90
20839;DHT22;10580;51.092;6.828;2022-12-19T16:53:50;7.10;99.90
20839;DHT22;10580;51.092;6.828;2022-12-19T16:56:28;7.00;99.90
20839;DHT22;10580;51.092;6.828;2022-12-19T16:58:55;6.90;99.90
20839;DHT22;10580;51.092;6.828;2022-12-19T17:01:22;6.80;99.90
20839;DHT22;10580;51.092;6.828;2022-12-19T17:03:48;6.80;99.90
20839;DHT22;10580;51.092;6.828;2022-12-19T17:06:17;6.80;99.90
20839;DHT22;10580;51.092;6.828;2022-12-19T17:08:43;6.80;99.90
20839;DHT22;10580;51.092;6.828;2022-12-19T17:11:29;6.80;99.90
20839;DHT22;10580;51.092;6.828;2022-12-19T17:14:02;6.80;99.90
20839;DHT22;10580;51.092;6.828;2022-12-19T17:16:54;6.80;99.90
20839;DHT22;10580;51.092;6.828;2022-12-19T17:19:41;6.80;99.90
20839;DHT22;10580;51.092;6.828;2022-12-19T17:22:40;6.80;99.90
20839;DHT22;10580;51.092;6.828;2022-12-19T17:25:35;6.80;99.90
20839;DHT22;10580;51.092;6.828;2022-12-19T17:28:11;6.80;99.90
20839;DHT22;10580;51.092;6.828;2022-12-19T17:30:45;6.80;99.90
20839;DHT22;10580;51.092;6.828;2022-12-19T17:33:27;6.90;99.90
20839;DHT22;10580;51.092;6.828;2022-12-19T17:36:05;7.00;99.90
20839;DHT22;10580;51.092;6.828;2022-12-19T17:38:38;7.10;99.90
20839;DHT22;10580;51.092;6.828;2022-12-19T17:41:04;7.10;99.90
20839;DHT22;10580;51.092;6.828;2022-12-19T17:43:33;7.20;99.90
20839;DHT22;10580;51.092;6.828;2022-12-19T17:45:59;7.20;99.90
20839;DHT22;10580;51.092;6.828;2022-12-19T17:48:40;7.20;99.90
20839;DHT22;10580;51.092;6.828;2022-12-19T17:51:10;7.40;99.90
20839;DHT22;10580;51.092;6.828;2022-12-19T17:53:44;7.50;99.90
20839;DHT22;10580;51.092;6.828;2022-12-19T17:56:13;7.60;99.90
20839;DHT22;10580;51.092;6.828;2022-12-19T17:58:38;7.60;99.90
20839;DHT22;10580;51.092;6.828;2022-12-19T18:01:21;7.60;99.90
20839;DHT22;10580;51.092;6.828;2022-12-19T18:03:55;7.60;99.90
20839;DHT22;10580;51.092;6.828;2022-12-19T18:06:23;7.60;99.90
20839;DHT22;10580;51.092;6.828;2022-12-19T18:08:56;7.70;99.90
20839;DHT22;10580;51.092;6.828;2022-12-19T18:11:23;7.80;99.90